< Typhoon 195712 1957 Season Typhoon 195714 >
Typhoon 195713 (ELAINE)
General InformationTrack Information on Google Maps || Disaster Info.ResourceGoogle EarthGE AnimationAtom FeedGeoJSON
Detalied Best Track (Time Zone = UTC)
Year Month Day Hour Lat. Long. Pressure (hPa) Wind (kt) Class Image Chart
1957 9 14 18 16.0 145.8 1004 0 2 -- Chart
1957 9 15 00 17.1 145.1 1002 0 2 -- Chart
1957 9 15 06 17.9 144.5 950 0 9 -- Chart
1957 9 15 12 18.5 143.8 950 0 9 -- Chart
1957 9 15 18 18.8 142.8 950 0 9 -- Chart
1957 9 16 00 19.7 141.5 950 0 9 -- Chart
1957 9 16 06 20.6 140.4 945 0 9 -- Chart
1957 9 16 12 21.6 139.8 945 0 9 -- Chart
1957 9 16 18 22.6 139.3 945 0 9 -- Chart
1957 9 17 00 23.7 138.7 945 0 9 -- Chart
1957 9 17 06 24.8 138.1 945 0 9 -- Chart
1957 9 17 12 25.6 139.0 955 0 9 -- Chart
1957 9 17 18 26.6 140.3 970 0 9 -- Chart
1957 9 18 00 28.1 142.1 970 0 9 -- Chart
1957 9 18 06 29.6 145.0 980 0 9 -- Chart
1957 9 18 12 31.3 148.6 980 0 9 -- Chart
1957 9 18 18 33.6 152.5 980 0 9 -- Chart
1957 9 19 00 37.4 154.5 990 0 9 -- Chart
1957 9 19 06 39.2 156.9 1002 0 6 -- Chart
1957 9 19 12 40.6 160.0 1002 0 6 -- Chart
1957 9 19 18 41.9 162.1 1004 0 6 -- Chart
1957 9 20 00 41.8 168.0 1004 0 6 -- Chart
1957 9 20 06 41.9 173.2 1004 0 6 -- Chart
1957 9 20 12 43.1 175.8 1004 0 6 -- Chart
1957 9 20 18 43.9 177.0 1004 0 6 -- Chart
1957 9 21 00 44.0 179.0 1004 0 6 -- Chart
1957 9 21 06 45.0 181.0 1004 0 6 -- Chart
Japan Meteorological Agency Best Track Data | Correction Date : 1990-10-17
< Typhoon 195712 1957 Season Typhoon 195714 >

Help